createdAt,value
2019-01-08T00:00:26.685Z,81.13
2019-01-08T00:02:52.555Z,82.67
2019-01-08T00:05:18.441Z,80.87
2019-01-08T00:07:44.482Z,80.43
2019-01-08T00:10:10.777Z,75.57
2019-01-08T00:12:36.761Z,78.20
2019-01-08T00:15:02.813Z,78.23
2019-01-08T00:17:28.839Z,80.13
2019-01-08T00:19:54.738Z,75.07
2019-01-08T00:22:20.602Z,79.27
2019-01-08T00:24:46.473Z,83.27
2019-01-08T00:27:12.483Z,76.70
2019-01-08T00:29:38.374Z,76.30
2019-01-08T00:32:04.264Z,76.47
2019-01-08T00:34:32.069Z,80.80
2019-01-08T00:36:57.937Z,79.67
2019-01-08T00:39:23.797Z,77.47
2019-01-08T00:41:49.674Z,73.87
2019-01-08T00:44:15.592Z,74.50
2019-01-08T00:46:41.479Z,72.10
2019-01-08T00:49:07.428Z,79.73
2019-01-08T00:51:33.321Z,75.10
2019-01-08T00:54:01.234Z,77.93
2019-01-08T00:56:27.026Z,71.37
2019-01-08T00:58:53.594Z,70.03
2019-01-08T01:01:19.466Z,71.10
2019-01-08T01:03:45.342Z,75.30
2019-01-08T01:06:11.207Z,73.47
2019-01-08T01:08:37.100Z,76.13
2019-01-08T01:11:03.010Z,73.50
2019-01-08T01:13:29.037Z,79.30
2019-01-08T01:15:54.879Z,74.20
2019-01-08T01:18:20.961Z,74.30
2019-01-08T01:20:46.918Z,77.90
2019-01-08T01:23:12.804Z,77.83
2019-01-08T01:25:38.660Z,74.53
2019-01-08T01:28:04.797Z,74.57
2019-01-08T01:30:30.673Z,76.67
2019-01-08T01:32:56.554Z,74.70
2019-01-08T01:35:22.453Z,74.00
2019-01-08T01:37:48.444Z,76.70
2019-01-08T01:40:14.336Z,79.97
2019-01-08T01:42:40.236Z,73.63
2019-01-08T01:45:06.088Z,72.57
2019-01-08T01:47:32.265Z,77.97
2019-01-08T01:50:00.155Z,76.20
2019-01-08T01:52:26.130Z,75.10
2019-01-08T01:54:52.010Z,74.77
2019-01-08T01:57:17.932Z,77.03
2019-01-08T01:59:44.101Z,76.27
2019-01-08T02:02:10.008Z,71.03
2019-01-08T02:04:35.868Z,73.10
2019-01-08T02:07:01.731Z,72.03
2019-01-08T02:09:27.609Z,79.80
2019-01-08T02:11:53.742Z,74.87
2019-01-08T02:14:19.754Z,70.23
2019-01-08T02:16:45.648Z,72.17
2019-01-08T02:19:11.502Z,70.43
2019-01-08T02:21:37.389Z,72.97
2019-01-08T02:24:03.372Z,69.23
2019-01-08T02:26:29.286Z,72.40
2019-01-08T02:28:55.159Z,71.63
2019-01-08T02:31:21.069Z,71.27
2019-01-08T02:33:46.934Z,72.17
2019-01-08T02:36:12.804Z,69.53
2019-01-08T02:38:38.701Z,70.47
2019-01-08T02:41:04.596Z,68.30
2019-01-08T02:43:30.517Z,72.03
2019-01-08T02:45:56.516Z,69.43
2019-01-08T02:48:22.398Z,69.77
2019-01-08T02:50:48.276Z,70.10
2019-01-08T02:53:14.172Z,72.50
2019-01-08T02:55:41.642Z,68.57
2019-01-08T02:58:07.584Z,68.97
2019-01-08T03:00:34.249Z,70.87
2019-01-08T03:03:00.092Z,70.30
2019-01-08T03:05:25.969Z,71.53
2019-01-08T03:07:51.876Z,67.97
2019-01-08T03:10:17.767Z,70.10
2019-01-08T03:12:43.786Z,69.10
2019-01-08T03:15:09.636Z,67.80
2019-01-08T03:17:35.547Z,73.80
2019-01-08T03:20:01.418Z,69.17
2019-01-08T03:22:27.305Z,69.87
2019-01-08T03:24:53.538Z,68.10
2019-01-08T03:27:19.441Z,72.93
2019-01-08T03:29:45.503Z,66.47
2019-01-08T03:32:11.410Z,69.00
2019-01-08T03:34:37.310Z,69.20
2019-01-08T03:37:03.188Z,68.10
2019-01-08T03:39:29.066Z,68.67
2019-01-08T03:41:54.940Z,64.60
2019-01-08T03:44:20.793Z,67.53
2019-01-08T03:46:46.755Z,65.53
2019-01-08T03:49:12.624Z,68.90
2019-01-08T03:51:38.508Z,70.00
2019-01-08T03:54:04.419Z,71.33
2019-01-08T03:56:31.730Z,65.93
2019-01-08T03:58:57.653Z,71.17
2019-01-08T04:01:24.211Z,69.63
2019-01-08T04:03:50.098Z,71.27
2019-01-08T04:06:16.014Z,67.40
2019-01-08T04:08:41.910Z,65.93
2019-01-08T04:11:07.776Z,67.77
2019-01-08T04:13:33.647Z,64.97
2019-01-08T04:16:00.368Z,69.10
2019-01-08T04:18:27.449Z,68.33
2019-01-08T04:20:53.360Z,71.70
2019-01-08T04:23:19.231Z,66.23
2019-01-08T04:25:45.130Z,68.83
2019-01-08T04:28:11.004Z,66.67
2019-01-08T04:30:36.997Z,68.17
2019-01-08T04:33:02.883Z,72.70
2019-01-08T04:35:28.838Z,71.03
2019-01-08T04:37:54.697Z,64.23
2019-01-08T04:40:20.583Z,68.27
2019-01-08T04:42:46.454Z,65.97
2019-01-08T04:45:14.722Z,65.70
2019-01-08T04:47:40.447Z,69.93
2019-01-08T04:50:06.359Z,69.83
2019-01-08T04:52:35.156Z,67.47
2019-01-08T04:55:01.210Z,64.33
2019-01-08T04:57:27.193Z,67.70
2019-01-08T04:59:58.908Z,70.23
2019-01-08T05:02:22.438Z,65.37
2019-01-08T05:04:48.313Z,65.43
2019-01-08T05:07:14.297Z,65.43
2019-01-08T05:09:40.186Z,71.27
2019-01-08T05:12:07.647Z,68.67
2019-01-08T05:14:33.543Z,68.83
2019-01-08T05:16:59.492Z,74.43
2019-01-08T05:19:25.377Z,70.20
2019-01-08T05:21:51.343Z,78.83
2019-01-08T05:24:17.312Z,73.47
2019-01-08T05:26:43.395Z,67.53
2019-01-08T05:29:09.272Z,70.70
2019-01-08T05:31:35.261Z,79.00
2019-01-08T05:34:01.162Z,78.37
2019-01-08T05:36:27.042Z,75.23
2019-01-08T05:38:52.997Z,70.37
2019-01-08T05:41:18.907Z,69.63
2019-01-08T05:43:44.795Z,64.13
2019-01-08T05:46:10.667Z,64.20
2019-01-08T05:48:36.520Z,69.10
2019-01-08T05:51:02.403Z,72.00
2019-01-08T05:53:28.589Z,66.83
2019-01-08T05:55:54.477Z,65.23
2019-01-08T05:58:20.386Z,69.73
2019-01-08T06:00:46.304Z,66.77
2019-01-08T06:03:12.980Z,68.03
2019-01-08T06:05:38.965Z,69.07
2019-01-08T06:08:04.870Z,68.60
2019-01-08T06:10:30.743Z,69.37
2019-01-08T06:12:56.704Z,69.60
2019-01-08T06:15:22.591Z,68.90
2019-01-08T06:17:48.491Z,76.53
2019-01-08T06:20:14.387Z,74.53
2019-01-08T06:22:40.272Z,70.80
2019-01-08T06:25:08.110Z,73.90
2019-01-08T06:27:33.985Z,76.30
2019-01-08T06:29:59.901Z,71.50
2019-01-08T06:32:33.125Z,73.00
2019-01-08T06:34:58.993Z,79.47
2019-01-08T06:37:24.945Z,87.33
2019-01-08T06:39:50.820Z,87.77
2019-01-08T06:42:16.711Z,88.60
2019-01-08T06:44:42.627Z,75.23
2019-01-08T06:47:08.495Z,82.67
2019-01-08T06:49:34.368Z,82.33
2019-01-08T06:52:00.263Z,83.43
2019-01-08T06:54:26.132Z,85.53
2019-01-08T06:56:52.022Z,89.40
2019-01-08T06:59:17.920Z,80.53
2019-01-08T07:01:43.793Z,86.27
2019-01-08T07:04:10.469Z,85.27
2019-01-08T07:06:36.345Z,89.13
2019-01-08T07:09:03.255Z,88.57
2019-01-08T07:11:29.116Z,79.67
2019-01-08T07:13:55.074Z,82.77
2019-01-08T07:16:20.950Z,86.73
2019-01-08T07:18:46.872Z,84.53
2019-01-08T07:21:13.006Z,86.60
2019-01-08T07:23:40.298Z,90.83
2019-01-08T07:26:06.146Z,89.53
2019-01-08T07:28:32.014Z,87.10
2019-01-08T07:30:57.907Z,91.00
2019-01-08T07:33:25.727Z,89.83
2019-01-08T07:35:51.597Z,92.30
2019-01-08T07:38:17.458Z,92.03
2019-01-08T07:40:43.343Z,90.10
2019-01-08T07:43:09.209Z,96.10
2019-01-08T07:45:35.087Z,94.40
2019-01-08T07:48:01.065Z,92.93
2019-01-08T07:50:26.950Z,93.07
2019-01-08T07:52:53.089Z,100.37
2019-01-08T07:55:18.989Z,88.83
2019-01-08T07:57:44.859Z,93.33
2019-01-08T08:00:11.180Z,85.07
2019-01-08T08:02:37.098Z,86.00
2019-01-08T08:05:05.926Z,85.50
2019-01-08T08:07:31.805Z,84.37
2019-01-08T08:09:57.699Z,82.23
2019-01-08T08:12:23.591Z,80.07
2019-01-08T08:14:49.502Z,83.13
2019-01-08T08:17:15.391Z,85.03
2019-01-08T08:19:41.265Z,83.87
2019-01-08T08:22:07.247Z,80.23
2019-01-08T08:24:33.134Z,88.17
2019-01-08T08:26:59.016Z,89.83
2019-01-08T08:29:24.921Z,101.03
2019-01-08T08:31:50.780Z,86.77
2019-01-08T08:34:16.661Z,95.30
2019-01-08T08:36:42.583Z,94.23
2019-01-08T08:39:08.493Z,98.53
2019-01-08T08:41:34.374Z,94.00
2019-01-08T08:44:00.237Z,100.90
2019-01-08T08:46:26.118Z,94.53
2019-01-08T08:48:51.981Z,95.77
2019-01-08T08:51:17.876Z,92.37
2019-01-08T08:53:52.002Z,98.87
2019-01-08T08:56:11.714Z,97.53
2019-01-08T08:58:38.766Z,91.53
2019-01-08T09:01:07.017Z,96.03
2019-01-08T09:03:32.911Z,91.80
2019-01-08T09:06:02.411Z,96.27
2019-01-08T09:08:28.394Z,92.47
2019-01-08T09:10:54.368Z,91.17
2019-01-08T09:13:20.248Z,95.43
2019-01-08T09:15:46.136Z,92.57
2019-01-08T09:18:13.990Z,94.07
2019-01-08T09:20:39.888Z,90.67
2019-01-08T09:23:05.798Z,85.50
2019-01-08T09:25:31.693Z,96.30
2019-01-08T09:27:57.596Z,90.87
2019-01-08T09:30:23.546Z,88.10
2019-01-08T09:32:49.412Z,85.10
2019-01-08T09:35:15.297Z,88.30
2019-01-08T09:37:41.335Z,112.10
2019-01-08T09:40:07.277Z,117.57
2019-01-08T09:42:33.158Z,119.33
2019-01-08T09:44:59.008Z,128.00
2019-01-08T09:47:24.918Z,138.10
2019-01-08T09:49:51.903Z,139.60
2019-01-08T09:52:17.801Z,144.10
2019-01-08T09:54:43.662Z,148.70
2019-01-08T09:57:09.557Z,158.03
2019-01-08T09:59:35.653Z,161.80
2019-01-08T10:02:01.582Z,150.33
2019-01-08T10:04:27.525Z,160.47
2019-01-08T10:06:53.833Z,152.03
2019-01-08T10:09:19.753Z,159.30
2019-01-08T10:11:45.691Z,161.67
2019-01-08T10:14:11.568Z,151.60
2019-01-08T10:16:37.615Z,154.80
2019-01-08T10:19:03.476Z,175.67
2019-01-08T10:21:31.267Z,164.73
2019-01-08T10:23:57.163Z,156.07
2019-01-08T10:26:23.045Z,147.70
2019-01-08T10:28:48.987Z,161.47
2019-01-08T10:31:17.427Z,142.13
2019-01-08T10:33:43.371Z,150.77
2019-01-08T10:36:09.320Z,143.23
2019-01-08T10:38:35.245Z,156.67
2019-01-08T10:41:01.116Z,137.87
2019-01-08T10:43:26.975Z,130.20
2019-01-08T10:45:52.878Z,131.07
2019-01-08T10:48:18.769Z,139.33
2019-01-08T10:50:45.045Z,124.83
2019-01-08T10:53:10.948Z,140.90
2019-01-08T10:55:36.964Z,139.43
2019-01-08T10:58:02.989Z,154.80
2019-01-08T11:00:28.848Z,153.03
2019-01-08T11:02:54.707Z,152.93
2019-01-08T11:05:20.603Z,158.13
2019-01-08T11:07:46.894Z,143.33
2019-01-08T11:10:12.783Z,136.27
2019-01-08T11:12:38.656Z,142.97
2019-01-08T11:15:06.426Z,139.27
2019-01-08T11:17:32.347Z,129.80
2019-01-08T11:19:58.214Z,132.90
2019-01-08T11:22:25.298Z,126.87
2019-01-08T11:24:51.468Z,128.37
2019-01-08T11:27:17.391Z,119.70
2019-01-08T11:29:43.235Z,117.57
2019-01-08T11:32:09.135Z,122.83
2019-01-08T11:34:34.985Z,116.47
2019-01-08T11:37:00.867Z,116.00
2019-01-08T11:39:28.658Z,114.43
2019-01-08T11:41:54.550Z,120.90
2019-01-08T11:44:20.541Z,119.27
2019-01-08T11:46:46.378Z,115.83
2019-01-08T11:49:13.404Z,112.27
2019-01-08T11:51:39.300Z,116.77
2019-01-08T11:54:05.175Z,115.30
2019-01-08T11:56:31.052Z,113.47
2019-01-08T11:58:56.911Z,116.80
2019-01-08T12:01:22.794Z,116.60
2019-01-08T12:03:48.673Z,119.80
2019-01-08T12:06:14.600Z,118.53
2019-01-08T12:08:40.737Z,121.90
2019-01-08T12:11:06.631Z,124.90
2019-01-08T12:13:32.489Z,128.80
2019-01-08T12:15:58.458Z,136.70
2019-01-08T12:18:26.727Z,146.07
2019-01-08T12:20:52.633Z,142.37
2019-01-08T12:23:18.500Z,139.40
2019-01-08T12:25:44.470Z,133.67
2019-01-08T12:28:10.359Z,139.20
2019-01-08T12:30:36.303Z,135.33
2019-01-08T12:33:04.231Z,138.93
2019-01-08T12:35:30.116Z,142.13
2019-01-08T12:37:56.107Z,146.17
2019-01-08T12:40:22.103Z,140.20
2019-01-08T12:42:47.997Z,149.63
2019-01-08T12:45:13.875Z,143.60
2019-01-08T12:47:39.771Z,157.57
2019-01-08T12:50:06.587Z,156.90
2019-01-08T12:52:32.660Z,152.60
2019-01-08T12:54:58.534Z,144.20
2019-01-08T12:57:24.412Z,154.50
2019-01-08T12:59:50.280Z,159.40
2019-01-08T13:02:16.173Z,167.13
2019-01-08T13:04:42.175Z,156.30
2019-01-08T13:07:08.147Z,149.00
2019-01-08T13:09:34.670Z,168.43
2019-01-08T13:12:00.679Z,174.73
2019-01-08T13:14:26.554Z,181.60
2019-01-08T13:16:52.519Z,178.60
2019-01-08T13:19:18.404Z,190.67
2019-01-08T13:21:44.300Z,202.73
2019-01-08T13:24:10.148Z,204.73
2019-01-08T13:26:36.021Z,198.70
2019-01-08T13:29:01.995Z,225.63
2019-01-08T13:31:27.921Z,237.27
2019-01-08T13:33:53.796Z,217.23
2019-01-08T13:36:19.702Z,222.17
2019-01-08T13:38:45.570Z,197.67
2019-01-08T13:41:11.431Z,221.87
2019-01-08T13:43:37.294Z,242.83
2019-01-08T13:46:03.175Z,198.03
2019-01-08T13:48:29.078Z,215.90
2019-01-08T13:50:54.934Z,271.43
2019-01-08T13:53:20.812Z,224.03
2019-01-08T13:55:46.711Z,221.43
2019-01-08T13:58:12.586Z,225.37
2019-01-08T14:00:38.507Z,212.87
2019-01-08T14:03:04.380Z,216.53
2019-01-08T14:05:30.242Z,217.67
2019-01-08T14:07:56.857Z,224.17
2019-01-08T14:10:23.665Z,221.53
2019-01-08T14:12:51.457Z,293.13
2019-01-08T14:15:17.294Z,290.87
2019-01-08T14:17:43.291Z,261.80
2019-01-08T14:20:09.397Z,297.63
2019-01-08T14:22:35.251Z,266.10
2019-01-08T14:25:01.101Z,305.83
2019-01-08T14:27:27.014Z,291.63
2019-01-08T14:29:52.884Z,292.43
2019-01-08T14:32:18.856Z,341.20
2019-01-08T14:34:44.737Z,269.33
2019-01-08T14:37:10.598Z,263.03
2019-01-08T14:39:36.494Z,256.07
2019-01-08T14:42:02.406Z,259.17
2019-01-08T14:44:28.274Z,272.00
2019-01-08T14:46:54.156Z,261.67
2019-01-08T14:49:20.015Z,257.67
2019-01-08T14:51:45.879Z,270.83
2019-01-08T14:54:11.864Z,328.70
2019-01-08T14:56:37.830Z,236.30
2019-01-08T14:59:03.848Z,274.20
2019-01-08T15:01:29.798Z,364.00
2019-01-08T15:03:55.669Z,236.03
2019-01-08T15:06:21.629Z,319.37
2019-01-08T15:08:47.643Z,275.43
2019-01-08T15:11:14.406Z,308.97
2019-01-08T15:13:40.374Z,311.93
2019-01-08T15:16:06.341Z,278.43
2019-01-08T15:18:32.160Z,300.83
2019-01-08T15:20:58.086Z,436.07
2019-01-08T15:23:23.953Z,262.33
2019-01-08T15:25:51.070Z,309.67
2019-01-08T15:28:17.112Z,380.90
2019-01-08T15:30:43.152Z,477.17
2019-01-08T15:33:09.041Z,447.10
2019-01-08T15:35:34.938Z,393.27
2019-01-08T15:38:01.103Z,409.47
2019-01-08T15:40:27.107Z,251.07
2019-01-08T15:42:53.103Z,266.43
2019-01-08T15:45:18.982Z,381.37
2019-01-08T15:47:44.921Z,315.57
2019-01-08T15:50:13.596Z,265.17
2019-01-08T15:52:39.477Z,279.17
2019-01-08T15:55:05.363Z,256.80
2019-01-08T15:57:31.215Z,334.07
2019-01-08T15:59:57.087Z,269.23
2019-01-08T16:02:24.934Z,361.00
2019-01-08T16:04:50.803Z,285.40
2019-01-08T16:07:16.710Z,255.13
2019-01-08T16:09:43.023Z,234.87
2019-01-08T16:12:09.888Z,251.97
2019-01-08T16:14:37.655Z,259.33
2019-01-08T16:17:03.617Z,283.50
2019-01-08T16:19:31.427Z,346.27
2019-01-08T16:21:57.305Z,243.53
2019-01-08T16:24:23.272Z,292.70
2019-01-08T16:26:49.181Z,240.13
2019-01-08T16:29:15.166Z,248.60
2019-01-08T16:31:41.146Z,248.53
2019-01-08T16:34:07.083Z,270.93
2019-01-08T16:36:33.007Z,279.17
2019-01-08T16:38:58.978Z,329.63
2019-01-08T16:41:24.896Z,277.00
2019-01-08T16:43:50.993Z,363.27
2019-01-08T16:46:17.111Z,276.07
2019-01-08T16:48:43.481Z,283.93
2019-01-08T16:51:09.363Z,273.63
2019-01-08T16:53:41.237Z,253.83
2019-01-08T16:56:03.228Z,303.83
2019-01-08T16:58:29.420Z,301.80
2019-01-08T17:00:55.309Z,300.90
2019-01-08T17:03:25.606Z,268.40
2019-01-08T17:05:49.379Z,287.60
2019-01-08T17:08:15.520Z,280.63
2019-01-08T17:10:42.581Z,364.97
2019-01-08T17:13:08.787Z,360.83
2019-01-08T17:15:34.645Z,315.17
2019-01-08T17:18:00.535Z,443.53
2019-01-08T17:20:26.391Z,559.60
2019-01-08T17:22:52.269Z,535.83
2019-01-08T17:25:18.177Z,444.20
2019-01-08T17:27:44.039Z,529.83
2019-01-08T17:30:10.024Z,478.83
2019-01-08T17:32:35.922Z,576.73
2019-01-08T17:35:01.868Z,528.53
2019-01-08T17:37:27.784Z,577.00
2019-01-08T17:39:53.658Z,543.00
2019-01-08T17:42:19.507Z,595.37
2019-01-08T17:44:45.507Z,645.03
2019-01-08T17:47:11.403Z,678.40
2019-01-08T17:49:37.277Z,663.83
2019-01-08T17:52:05.077Z,545.40
2019-01-08T17:54:31.057Z,592.53
2019-01-08T17:56:56.997Z,495.53
2019-01-08T17:59:22.914Z,438.67
2019-01-08T18:01:50.574Z,383.43
2019-01-08T18:04:16.702Z,402.60
2019-01-08T18:06:42.559Z,597.50
2019-01-08T18:09:08.415Z,496.77
2019-01-08T18:11:34.672Z,472.47
2019-01-08T18:14:01.695Z,575.33
2019-01-08T18:16:27.615Z,507.70
2019-01-08T18:18:53.507Z,863.20
2019-01-08T18:21:19.387Z,668.10
2019-01-08T18:23:45.243Z,619.37
2019-01-08T18:26:11.162Z,518.70
2019-01-08T18:28:37.123Z,781.17
2019-01-08T18:31:03.031Z,722.10
2019-01-08T18:33:28.918Z,762.83
2019-01-08T18:35:54.793Z,600.27
2019-01-08T18:38:20.665Z,533.43
2019-01-08T18:40:46.532Z,531.40
2019-01-08T18:43:14.176Z,511.33
2019-01-08T18:45:40.352Z,564.57
2019-01-08T18:48:06.371Z,560.57
2019-01-08T18:50:32.426Z,455.70
2019-01-08T18:52:58.259Z,460.37
2019-01-08T18:55:24.194Z,550.73
2019-01-08T18:57:50.071Z,479.33
2019-01-08T19:00:15.952Z,459.17
2019-01-08T19:02:41.833Z,403.10
2019-01-08T19:05:08.009Z,318.40
2019-01-08T19:07:34.015Z,401.63
2019-01-08T19:10:03.859Z,430.43
2019-01-08T19:12:30.462Z,441.27
2019-01-08T19:14:57.234Z,367.80
2019-01-08T19:17:23.126Z,329.30
2019-01-08T19:19:48.981Z,311.83
2019-01-08T19:22:15.064Z,288.20
2019-01-08T19:24:41.042Z,332.83
2019-01-08T19:27:06.957Z,406.33
2019-01-08T19:29:32.853Z,365.90
2019-01-08T19:31:58.717Z,383.97
2019-01-08T19:34:24.609Z,416.23
2019-01-08T19:36:50.483Z,453.00
2019-01-08T19:39:16.430Z,449.23
2019-01-08T19:41:42.316Z,490.23
2019-01-08T19:44:08.186Z,422.50
2019-01-08T19:46:34.228Z,424.87
2019-01-08T19:49:00.230Z,386.20
2019-01-08T19:51:26.191Z,464.17
2019-01-08T19:53:52.082Z,402.90
2019-01-08T19:56:17.943Z,448.53
2019-01-08T19:58:43.818Z,363.07
2019-01-08T20:01:09.727Z,461.00
2019-01-08T20:03:35.558Z,445.27
2019-01-08T20:06:01.429Z,479.67
2019-01-08T20:08:27.335Z,387.87
2019-01-08T20:10:53.209Z,383.43
2019-01-08T20:13:19.760Z,456.87
2019-01-08T20:15:46.146Z,329.27
2019-01-08T20:18:12.011Z,387.20
2019-01-08T20:20:37.889Z,299.17
2019-01-08T20:23:03.860Z,286.93
2019-01-08T20:25:29.810Z,277.63
2019-01-08T20:27:55.714Z,276.93
2019-01-08T20:30:21.737Z,278.67
2019-01-08T20:32:47.619Z,286.13
2019-01-08T20:35:13.501Z,288.37
2019-01-08T20:37:39.571Z,326.27
2019-01-08T20:40:05.685Z,292.30
2019-01-08T20:42:31.646Z,270.83
2019-01-08T20:44:57.703Z,264.53
2019-01-08T20:47:23.803Z,244.30
2019-01-08T20:49:49.685Z,252.67
2019-01-08T20:52:15.876Z,278.80
2019-01-08T20:54:41.874Z,248.53
2019-01-08T20:57:09.250Z,242.73
2019-01-08T20:59:37.493Z,239.00
2019-01-08T21:02:03.515Z,240.07
2019-01-08T21:04:35.270Z,274.70
2019-01-08T21:06:57.413Z,270.33
2019-01-08T21:09:23.411Z,255.33
2019-01-08T21:11:49.317Z,253.40
2019-01-08T21:14:15.881Z,270.20
2019-01-08T21:16:42.497Z,273.73
2019-01-08T21:19:08.408Z,285.87
2019-01-08T21:21:34.315Z,278.07
2019-01-08T21:24:00.389Z,289.87
2019-01-08T21:26:26.522Z,291.77
2019-01-08T21:28:52.545Z,279.07
2019-01-08T21:31:18.385Z,295.00
2019-01-08T21:33:44.307Z,295.57
2019-01-08T21:36:10.228Z,275.10
2019-01-08T21:38:36.100Z,287.50
2019-01-08T21:41:01.986Z,309.07
2019-01-08T21:43:27.894Z,278.57
2019-01-08T21:45:53.804Z,265.80
2019-01-08T21:48:19.696Z,269.37
2019-01-08T21:50:45.681Z,272.87
2019-01-08T21:53:11.578Z,276.60
2019-01-08T21:55:38.327Z,270.33
2019-01-08T21:58:05.857Z,269.83
2019-01-08T22:00:31.988Z,257.27
2019-01-08T22:02:57.849Z,253.13
2019-01-08T22:05:23.832Z,246.43
2019-01-08T22:07:49.697Z,251.07
2019-01-08T22:10:15.985Z,244.80
2019-01-08T22:12:41.877Z,252.63
2019-01-08T22:15:08.098Z,251.70
2019-01-08T22:17:36.768Z,250.63
2019-01-08T22:20:06.563Z,243.70
2019-01-08T22:22:32.456Z,248.57
2019-01-08T22:24:58.329Z,245.97
2019-01-08T22:27:24.186Z,248.27
2019-01-08T22:29:50.089Z,257.47
2019-01-08T22:32:15.977Z,244.73
2019-01-08T22:34:41.861Z,232.83
2019-01-08T22:37:07.734Z,232.37
2019-01-08T22:39:33.630Z,235.27
2019-01-08T22:41:59.623Z,227.23
2019-01-08T22:44:26.563Z,229.03
2019-01-08T22:46:52.553Z,222.77
2019-01-08T22:49:18.527Z,215.50
2019-01-08T22:51:44.417Z,235.03
2019-01-08T22:54:10.310Z,230.67
2019-01-08T22:56:36.828Z,229.43
2019-01-08T22:59:02.723Z,230.43
2019-01-08T23:01:30.617Z,225.97
2019-01-08T23:03:56.603Z,227.63
2019-01-08T23:06:22.496Z,223.20
2019-01-08T23:08:48.355Z,231.47
2019-01-08T23:11:14.210Z,225.00
2019-01-08T23:13:40.118Z,230.67
2019-01-08T23:16:06.669Z,231.30
2019-01-08T23:18:32.811Z,225.20
2019-01-08T23:20:58.725Z,235.57
2019-01-08T23:23:24.705Z,221.00
2019-01-08T23:25:50.586Z,235.43
2019-01-08T23:28:16.435Z,226.27
2019-01-08T23:30:42.302Z,228.93
2019-01-08T23:33:08.182Z,217.43
2019-01-08T23:35:34.093Z,227.20
2019-01-08T23:37:59.992Z,233.47
2019-01-08T23:40:27.824Z,220.73
2019-01-08T23:42:53.658Z,221.53
2019-01-08T23:45:21.435Z,222.70
2019-01-08T23:47:47.343Z,230.33
2019-01-08T23:50:13.227Z,220.43
2019-01-08T23:52:45.710Z,218.30
2019-01-08T23:55:11.558Z,227.40
2019-01-08T23:57:37.449Z,224.93
